Time;durP1;ratioP1;P1;durP2;ratioP2;P2;SDS_P1;SDS_P2;PMS_P1;PMS_P2;Temp;Humidity;BMP_temperature;BMP_pressure;BME280_temperature;BME280_humidity;BME280_pressure;Samples;Min_cycle;Max_cycle;Signal;HPM_P1;HPM_P2
2022/05/24 00:01:21;;;;;;;12.10;2.03;;;13.70;99.90;;;;;;4214448;28;20186;-88
2022/05/24 00:03:22;;;;;;;6.78;1.70;;;13.60;99.90;;;;;;4214424;28;20247;-87
2022/05/24 00:05:25;;;;;;;6.53;1.88;;;13.50;99.90;;;;;;4214407;28;20181;-88
2022/05/24 00:07:26;;;;;;;11.07;1.80;;;13.40;99.90;;;;;;4214214;28;20280;-88
2022/05/24 00:09:27;;;;;;;8.50;1.80;;;13.40;99.90;;;;;;4198350;28;20523;-88
2022/05/24 00:11:28;;;;;;;7.43;1.63;;;13.40;99.90;;;;;;4234746;28;20278;-87
2022/05/24 00:13:28;;;;;;;10.82;1.52;;;13.40;99.90;;;;;;4218944;28;20173;-88
2022/05/24 00:15:31;;;;;;;6.35;1.60;;;13.40;99.90;;;;;;4218041;28;20568;-89
2022/05/24 00:17:31;;;;;;;8.95;1.80;;;13.40;99.90;;;;;;4200834;28;20218;-88
2022/05/24 00:19:32;;;;;;;7.78;1.77;;;13.50;99.90;;;;;;4217515;28;20170;-89
2022/05/24 00:21:33;;;;;;;12.90;2.15;;;13.40;99.90;;;;;;4217581;28;20176;-88
2022/05/24 00:23:35;;;;;;;8.73;1.55;;;13.50;99.90;;;;;;4234290;28;20161;-87
2022/05/24 00:25:39;;;;;;;9.68;1.65;;;13.40;99.90;;;;;;4234451;28;20184;-88
2022/05/24 00:27:40;;;;;;;7.80;1.83;;;13.40;99.90;;;;;;4200580;28;20187;-87
2022/05/24 00:29:41;;;;;;;12.77;1.75;;;13.30;99.90;;;;;;4200577;28;20202;-88
2022/05/24 00:31:42;;;;;;;10.70;2.17;;;13.30;99.90;;;;;;4217518;28;20301;-88
2022/05/24 00:33:43;;;;;;;9.90;1.60;;;13.30;99.90;;;;;;4217642;28;20177;-88
2022/05/24 00:35:45;;;;;;;10.23;1.88;;;13.30;99.90;;;;;;4217423;28;20209;-88
2022/05/24 00:37:47;;;;;;;13.10;2.15;;;13.20;99.90;;;;;;4217390;28;20182;-87
2022/05/24 00:39:48;;;;;;;4.65;1.70;;;13.20;99.90;;;;;;4217336;28;20174;-88
2022/05/24 00:42:03;;;;;;;7.63;2.20;;;13.10;99.90;;;;;;4218229;28;20166;-88
2022/05/24 00:44:30;;;;;;;9.45;1.70;;;13.10;99.90;;;;;;4216888;28;20185;-87
2022/05/24 00:46:54;;;;;;;9.48;1.80;;;12.90;99.90;;;;;;4218353;28;20533;-88
2022/05/24 00:49:01;;;;;;;8.27;2.33;;;12.90;99.90;;;;;;4217146;28;20178;-89
2022/05/24 00:51:03;;;;;;;10.82;2.10;;;13.00;99.90;;;;;;4217181;28;20256;-87
2022/05/24 00:53:26;;;;;;;10.82;2.17;;;13.10;99.90;;;;;;4227042;22;20215;-84
2022/05/24 00:55:45;;;;;;;8.50;1.92;;;13.00;99.90;;;;;;4199841;28;20167;-85
2022/05/24 00:58:07;;;;;;;8.50;1.65;;;13.00;99.90;;;;;;4182836;28;20201;-90
2022/05/24 01:00:12;;;;;;;10.85;1.52;;;13.00;99.90;;;;;;4182838;28;20179;-84
2022/05/24 01:02:12;;;;;;;7.45;1.98;;;13.00;99.90;;;;;;4166321;28;20582;-85
2022/05/24 01:04:22;;;;;;;14.25;2.17;;;13.00;99.90;;;;;;4166742;28;20202;-85
2022/05/24 01:06:24;;;;;;;8.90;1.88;;;13.10;99.90;;;;;;4166581;28;20218;-84
2022/05/24 01:08:25;;;;;;;11.48;2.08;;;13.10;99.90;;;;;;4166506;28;20231;-84
2022/05/24 01:10:35;;;;;;;11.23;1.95;;;13.20;99.90;;;;;;4182933;28;20310;-91
2022/05/24 01:12:56;;;;;;;18.52;1.67;;;13.20;99.90;;;;;;4166393;28;20210;-84
2022/05/24 01:15:00;;;;;;;14.15;2.28;;;13.30;99.90;;;;;;4184051;28;20171;-84
2022/05/24 01:17:02;;;;;;;9.02;1.90;;;13.40;99.90;;;;;;4182535;28;20613;-85
2022/05/24 01:19:05;;;;;;;10.40;1.90;;;13.40;99.90;;;;;;4182911;28;20595;-84
2022/05/24 01:21:11;;;;;;;6.93;1.45;;;13.30;99.90;;;;;;4197551;28;20685;-84
2022/05/24 01:23:27;;;;;;;8.15;1.90;;;13.30;99.90;;;;;;4199130;28;20720;-84
2022/05/24 01:25:40;;;;;;;10.40;1.90;;;13.40;99.90;;;;;;4199425;28;20185;-85
2022/05/24 01:27:41;;;;;;;12.50;1.70;;;13.30;99.90;;;;;;4183589;28;20543;-84
2022/05/24 01:29:42;;;;;;;8.90;1.60;;;13.20;99.90;;;;;;4199333;28;20242;-88
2022/05/24 01:36:25;;;;;;;11.57;1.70;;;13.20;99.90;;;;;;4182499;28;20191;-84
2022/05/24 01:38:26;;;;;;;9.45;1.77;;;13.20;99.90;;;;;;4165906;28;20173;-84
2022/05/24 01:40:28;;;;;;;6.63;1.40;;;13.20;99.90;;;;;;4182381;28;20603;-84
2022/05/24 01:42:30;;;;;;;6.95;1.55;;;13.10;99.90;;;;;;4182465;28;20172;-89
2022/05/24 01:44:46;;;;;;;7.75;1.27;;;13.10;99.90;;;;;;4181995;28;20275;-87
2022/05/24 01:46:47;;;;;;;10.40;1.50;;;13.00;99.90;;;;;;4199288;28;20530;-90
2022/05/24 01:48:52;;;;;;;7.68;1.58;;;13.00;99.90;;;;;;4199009;28;20170;-87
2022/05/24 01:50:54;;;;;;;8.75;1.13;;;13.10;99.90;;;;;;4198896;28;20229;-90
2022/05/24 01:53:01;;;;;;;8.43;1.98;;;13.10;99.90;;;;;;4198815;28;20320;-84
2022/05/24 01:55:24;;;;;;;7.10;1.45;;;13.20;99.90;;;;;;4198588;28;20202;-86
2022/05/24 01:57:31;;;;;;;8.07;1.27;;;13.20;99.90;;;;;;4198610;28;20226;-86
2022/05/24 01:59:33;;;;;;;11.30;1.95;;;13.20;99.90;;;;;;4183688;28;20167;-84
2022/05/24 02:01:54;;;;;;;7.72;1.65;;;13.40;99.90;;;;;;4198677;28;20183;-86
2022/05/24 02:03:58;;;;;;;5.85;1.27;;;13.50;99.90;;;;;;4198604;28;20167;-92
2022/05/24 02:05:59;;;;;;;8.18;1.30;;;13.50;99.90;;;;;;4199028;28;20175;-85
2022/05/24 02:08:01;;;;;;;3.30;1.20;;;13.50;99.90;;;;;;4182091;28;20267;-84
2022/05/24 02:10:02;;;;;;;10.85;1.30;;;13.50;99.90;;;;;;4165583;28;20250;-86
2022/05/24 02:12:08;;;;;;;6.25;1.38;;;13.70;99.90;;;;;;4181963;28;20183;-88
2022/05/24 02:14:21;;;;;;;10.98;1.45;;;13.70;99.90;;;;;;4165499;28;20375;-92
2022/05/24 02:16:25;;;;;;;8.70;1.73;;;13.70;99.90;;;;;;4176977;28;20191;-84
2022/05/24 02:18:26;;;;;;;13.40;1.75;;;13.70;99.90;;;;;;4198285;28;20309;-83
2022/05/24 02:20:39;;;;;;;10.63;1.45;;;13.70;99.90;;;;;;4181553;28;20180;-87
2022/05/24 02:22:42;;;;;;;9.20;1.25;;;13.80;99.90;;;;;;4198140;28;20171;-84
2022/05/24 02:24:44;;;;;;;4.45;1.13;;;13.70;99.90;;;;;;4181972;28;20656;-84
2022/05/24 02:26:46;;;;;;;6.90;1.20;;;13.80;99.90;;;;;;4164803;28;20198;-88
2022/05/24 02:28:54;;;;;;;9.90;1.73;;;13.80;99.90;;;;;;4164931;28;20179;-90
2022/05/24 02:31:03;;;;;;;9.00;1.20;;;13.60;99.90;;;;;;4181686;28;20319;-84
2022/05/24 02:33:04;;;;;;;13.05;1.25;;;13.60;99.90;;;;;;4164684;28;20229;-90
2022/05/24 02:35:06;;;;;;;8.60;1.10;;;13.50;99.90;;;;;;4181839;28;20741;-87
2022/05/24 02:37:10;;;;;;;9.98;1.75;;;13.40;99.90;;;;;;4181412;28;20198;-83
2022/05/24 02:39:11;;;;;;;7.43;1.55;;;13.20;99.90;;;;;;4197729;28;20595;-84
2022/05/24 02:41:31;;;;;;;7.20;1.23;;;13.30;99.90;;;;;;4181353;28;20652;-87
2022/05/24 02:43:32;;;;;;;5.18;1.02;;;13.30;99.90;;;;;;4181446;28;20168;-91
2022/05/24 02:45:33;;;;;;;7.10;1.00;;;13.30;99.90;;;;;;4181517;28;20167;-94
2022/05/24 02:47:34;;;;;;;5.53;0.85;;;13.30;99.90;;;;;;4182316;28;20278;-84
2022/05/24 02:49:35;;;;;;;7.75;1.45;;;13.20;99.90;;;;;;4197675;28;20213;-84
2022/05/24 02:51:37;;;;;;;5.13;0.98;;;13.30;99.90;;;;;;4181321;28;20586;-88
2022/05/24 02:53:40;;;;;;;12.60;1.60;;;13.30;99.90;;;;;;4164752;28;20549;-88
2022/05/24 02:55:41;;;;;;;7.22;1.20;;;13.30;99.90;;;;;;4180998;28;20223;-91
2022/05/24 02:57:41;;;;;;;5.88;1.10;;;13.30;99.90;;;;;;4180913;28;20259;-84
2022/05/24 02:59:42;;;;;;;8.27;1.20;;;13.30;99.90;;;;;;4181349;28;20298;-84
2022/05/24 03:01:43;;;;;;;9.30;1.40;;;13.30;99.90;;;;;;4181068;28;20544;-93
2022/05/24 03:03:44;;;;;;;6.00;1.10;;;13.20;99.90;;;;;;4181258;28;20567;-84
2022/05/24 03:05:45;;;;;;;9.23;1.60;;;13.20;99.90;;;;;;4164568;28;20242;-83
2022/05/24 03:10:05;;;;;;;9.60;1.50;;;13.20;99.90;;;;;;4181134;28;20230;-83
2022/05/24 03:14:28;;;;;;;9.07;1.33;;;13.00;99.90;;;;;;4197552;28;20186;-84
2022/05/24 03:16:29;;;;;;;13.50;1.55;;;13.10;99.90;;;;;;4197364;28;20191;-85
2022/05/24 03:18:30;;;;;;;10.65;1.17;;;13.10;99.90;;;;;;4181087;28;20183;-90
2022/05/24 03:20:30;;;;;;;12.70;1.23;;;13.10;99.90;;;;;;4164365;28;20176;-84
2022/05/24 03:22:33;;;;;;;5.55;1.20;;;13.00;99.90;;;;;;4197674;28;20175;-88
2022/05/24 03:24:34;;;;;;;6.90;1.85;;;13.00;99.90;;;;;;4181018;28;20258;-85
2022/05/24 03:26:35;;;;;;;4.80;0.90;;;12.90;99.90;;;;;;4180829;28;20264;-84
2022/05/24 03:28:38;;;;;;;4.32;1.00;;;13.00;99.90;;;;;;4180902;28;20202;-84
2022/05/24 03:30:42;;;;;;;6.40;0.80;;;13.10;99.90;;;;;;4164009;28;20254;-84
2022/05/24 03:32:43;;;;;;;6.32;1.00;;;13.10;99.90;;;;;;4180887;28;20593;-84
2022/05/24 03:34:44;;;;;;;8.45;1.10;;;13.20;99.90;;;;;;4197502;28;20213;-84
2022/05/24 03:36:44;;;;;;;13.63;1.00;;;13.20;99.90;;;;;;4181975;28;20215;-84
2022/05/24 03:38:46;;;;;;;4.95;1.17;;;13.10;99.90;;;;;;4197619;28;20217;-89
2022/05/24 03:40:47;;;;;;;11.80;1.02;;;13.00;99.90;;;;;;4197166;28;20180;-85
2022/05/24 03:42:51;;;;;;;9.02;1.25;;;13.00;99.90;;;;;;4180526;28;20171;-85
2022/05/24 03:44:52;;;;;;;6.15;1.02;;;13.00;99.90;;;;;;4163786;28;20207;-83
2022/05/24 03:46:54;;;;;;;7.25;0.88;;;12.90;99.90;;;;;;4180745;28;20195;-87
2022/05/24 03:48:55;;;;;;;8.15;1.10;;;12.80;99.90;;;;;;4164595;28;20194;-84
2022/05/24 03:50:56;;;;;;;6.25;1.08;;;12.70;99.90;;;;;;4180782;28;20183;-85
2022/05/24 03:52:57;;;;;;;6.22;1.20;;;12.80;99.90;;;;;;4180392;28;20270;-85
2022/05/24 03:54:57;;;;;;;6.82;0.93;;;12.80;99.90;;;;;;4180416;28;20163;-85
2022/05/24 03:59:18;;;;;;;8.38;1.42;;;12.80;99.90;;;;;;4181786;28;20171;-88
2022/05/24 04:01:19;;;;;;;3.90;1.10;;;12.70;99.90;;;;;;4197275;28;20229;-85
2022/05/24 04:03:22;;;;;;;4.53;1.10;;;12.80;99.90;;;;;;4180684;28;20228;-85
2022/05/24 04:05:23;;;;;;;5.45;1.27;;;12.80;99.90;;;;;;4180552;28;20171;-92
2022/05/24 04:07:23;;;;;;;10.23;1.77;;;12.80;99.90;;;;;;4164045;28;20210;-87
2022/05/24 04:09:24;;;;;;;11.05;1.40;;;12.80;99.90;;;;;;4164078;28;20215;-84
2022/05/24 04:11:25;;;;;;;7.60;1.40;;;12.90;99.90;;;;;;4197320;28;20182;-88
2022/05/24 04:13:26;;;;;;;7.97;1.50;;;12.80;99.90;;;;;;4180845;28;20167;-87
2022/05/24 04:15:27;;;;;;;12.93;1.55;;;12.80;99.90;;;;;;4180420;28;20183;-90
2022/05/24 04:17:27;;;;;;;5.22;1.60;;;12.70;99.90;;;;;;4197339;28;20385;-84
2022/05/24 04:19:28;;;;;;;9.50;1.88;;;12.80;99.90;;;;;;4180623;28;20556;-90
2022/05/24 04:21:29;;;;;;;9.30;1.67;;;12.80;99.90;;;;;;4180298;28;20531;-90
2022/05/24 04:23:30;;;;;;;5.75;1.60;;;12.70;99.90;;;;;;4180699;28;20175;-91
2022/05/24 04:25:34;;;;;;;7.80;1.73;;;12.70;99.90;;;;;;4180690;28;20250;-91
2022/05/24 04:27:35;;;;;;;10.55;1.52;;;12.70;99.90;;;;;;4196991;28;20274;-91
2022/05/24 04:29:42;;;;;;;7.07;1.70;;;12.70;99.90;;;;;;4163982;28;20212;-90
2022/05/24 04:31:43;;;;;;;4.40;1.35;;;12.60;99.90;;;;;;4180231;28;20160;-89
2022/05/24 04:33:44;;;;;;;5.85;1.88;;;12.50;99.90;;;;;;4180083;28;20183;-90
2022/05/24 04:35:45;;;;;;;10.05;1.83;;;12.50;99.90;;;;;;4163885;28;20188;-84
2022/05/24 04:37:46;;;;;;;9.90;2.13;;;12.60;99.90;;;;;;4180285;28;20242;-85
2022/05/24 04:39:46;;;;;;;9.88;2.03;;;12.70;99.90;;;;;;4163334;28;20176;-89
2022/05/24 04:44:07;;;;;;;5.00;1.58;;;12.70;99.90;;;;;;4180519;28;20598;-91
2022/05/24 04:46:11;;;;;;;13.35;2.22;;;12.70;99.90;;;;;;4181070;28;20172;-91
2022/05/24 04:48:15;;;;;;;4.32;1.55;;;12.70;99.90;;;;;;4195981;28;20163;-84
2022/05/24 04:50:15;;;;;;;9.15;1.67;;;12.80;99.90;;;;;;4179685;28;20316;-89
2022/05/24 04:52:17;;;;;;;11.48;2.30;;;13.00;99.90;;;;;;4179953;28;20618;-83
2022/05/24 04:54:17;;;;;;;9.77;2.13;;;13.00;99.90;;;;;;4163426;28;20192;-90
2022/05/24 04:56:18;;;;;;;8.88;1.75;;;13.10;99.90;;;;;;4181989;28;20242;-85
2022/05/24 04:58:19;;;;;;;8.27;1.60;;;13.20;99.90;;;;;;4166469;28;20191;-84
2022/05/24 05:00:20;;;;;;;11.18;1.63;;;13.20;99.90;;;;;;4182923;28;20171;-91
2022/05/24 05:02:23;;;;;;;6.90;1.55;;;13.10;99.90;;;;;;4166422;28;20236;-84
2022/05/24 05:04:24;;;;;;;12.82;1.42;;;13.00;99.90;;;;;;4183247;28;20167;-91
2022/05/24 05:06:25;;;;;;;11.07;1.38;;;13.10;99.90;;;;;;4182773;28;20195;-89
2022/05/24 05:08:25;;;;;;;9.45;1.67;;;13.20;99.90;;;;;;4183000;28;20170;-91
2022/05/24 05:10:26;;;;;;;9.02;1.25;;;13.10;99.90;;;;;;4182828;28;20265;-84
2022/05/24 05:12:27;;;;;;;5.00;1.20;;;13.00;99.90;;;;;;4166221;28;20672;-91
2022/05/24 05:14:28;;;;;;;14.68;1.73;;;13.20;99.90;;;;;;4182537;28;20172;-85
2022/05/24 05:16:31;;;;;;;4.97;1.25;;;13.30;99.90;;;;;;4166415;28;20200;-91
2022/05/24 05:18:34;;;;;;;9.90;1.23;;;13.40;99.90;;;;;;4182801;28;20168;-86
2022/05/24 05:20:41;;;;;;;3.78;1.27;;;13.50;99.90;;;;;;4184030;28;20163;-90
2022/05/24 05:22:41;;;;;;;4.60;1.30;;;13.40;99.90;;;;;;4199164;28;20170;-84
2022/05/24 05:24:42;;;;;;;7.82;1.35;;;13.60;99.90;;;;;;4182344;28;20657;-83
2022/05/24 05:26:43;;;;;;;9.60;1.40;;;13.70;99.90;;;;;;4166353;28;20203;-90
2022/05/24 05:28:43;;;;;;;5.97;1.30;;;13.80;99.90;;;;;;4182670;28;20172;-89
2022/05/24 05:33:06;;;;;;;4.70;1.20;;;14.20;99.90;;;;;;4198775;28;20712;-91
2022/05/24 05:35:07;;;;;;;3.72;1.10;;;14.50;99.90;;;;;;4182399;28;20172;-84
2022/05/24 05:37:07;;;;;;;3.72;1.10;;;14.40;99.90;;;;;;4182475;28;20312;-90
2022/05/24 05:39:08;;;;;;;9.50;1.48;;;14.30;99.90;;;;;;4182964;28;20259;-92
2022/05/24 05:41:09;;;;;;;11.93;1.17;;;14.20;99.90;;;;;;4183075;28;20656;-91
2022/05/24 05:43:10;;;;;;;9.80;1.33;;;14.40;99.90;;;;;;4182777;28;20209;-85
2022/05/24 05:45:12;;;;;;;9.68;1.20;;;14.40;99.90;;;;;;4199059;28;20593;-86
2022/05/24 05:47:13;;;;;;;5.40;0.77;;;14.40;99.90;;;;;;4182525;28;20648;-87
2022/05/24 05:49:15;;;;;;;6.45;0.70;;;14.60;99.90;;;;;;4182925;28;20173;-89
2022/05/24 05:51:18;;;;;;;2.63;0.80;;;14.60;99.90;;;;;;4198848;28;20179;-86
2022/05/24 05:53:19;;;;;;;5.72;0.93;;;14.50;99.90;;;;;;4198558;28;20241;-87
2022/05/24 05:55:20;;;;;;;3.30;0.80;;;14.40;99.90;;;;;;4199378;28;20175;-88
2022/05/24 05:57:21;;;;;;;6.20;1.15;;;14.20;99.90;;;;;;4198456;28;20324;-83
2022/05/24 05:59:22;;;;;;;7.45;1.40;;;14.30;99.90;;;;;;4182014;28;20187;-86
2022/05/24 06:01:29;;;;;;;6.57;1.20;;;14.70;99.90;;;;;;4165035;28;20176;-86
2022/05/24 06:03:33;;;;;;;7.20;1.05;;;14.60;99.90;;;;;;4181902;28;20175;-90
2022/05/24 06:05:34;;;;;;;8.13;1.20;;;14.80;99.90;;;;;;4165655;28;20533;-87
2022/05/24 06:07:35;;;;;;;4.05;1.02;;;14.50;99.90;;;;;;4181016;28;20274;-87
2022/05/24 06:09:37;;;;;;;7.75;1.58;;;14.30;99.90;;;;;;4181464;28;20203;-86
2022/05/24 06:11:37;;;;;;;6.32;1.50;;;14.40;99.90;;;;;;4181875;28;20167;-91
2022/05/24 06:13:38;;;;;;;7.78;1.90;;;14.50;99.90;;;;;;4198103;28;20171;-86
2022/05/24 06:15:39;;;;;;;12.63;1.73;;;14.70;99.90;;;;;;4181782;28;20190;-85
2022/05/24 06:17:48;;;;;;;7.65;1.50;;;14.70;99.90;;;;;;4182154;28;20706;-89
2022/05/24 06:20:00;;;;;;;5.85;1.30;;;14.70;99.90;;;;;;4198483;28;20591;-85
2022/05/24 06:22:00;;;;;;;5.57;1.50;;;15.10;99.90;;;;;;4198555;28;20181;-88
2022/05/24 06:24:03;;;;;;;8.00;1.58;;;15.00;99.90;;;;;;4181713;28;20172;-91
2022/05/24 06:26:03;;;;;;;6.00;1.00;;;15.20;99.90;;;;;;4181191;28;20176;-91
2022/05/24 06:28:05;;;;;;;9.23;1.70;;;15.30;99.90;;;;;;4198176;28;20175;-84
2022/05/24 06:30:07;;;;;;;4.35;1.40;;;15.20;99.90;;;;;;4197926;28;20260;-92
2022/05/24 06:32:08;;;;;;;4.75;1.45;;;15.10;99.90;;;;;;4197976;28;20664;-88
2022/05/24 06:34:09;;;;;;;4.63;1.50;;;15.00;99.90;;;;;;4181639;28;20183;-88
2022/05/24 06:36:10;;;;;;;6.05;1.42;;;14.80;99.90;;;;;;4181420;28;20199;-91
2022/05/24 06:38:10;;;;;;;7.35;1.85;;;14.90;99.90;;;;;;4180948;28;20195;-84
2022/05/24 06:40:14;;;;;;;6.10;1.48;;;14.90;99.90;;;;;;4181144;28;20560;-91
2022/05/24 06:42:15;;;;;;;5.18;1.30;;;15.00;99.90;;;;;;4181163;28;20322;-92
2022/05/24 06:44:17;;;;;;;8.82;1.70;;;15.10;99.90;;;;;;4164926;28;20164;-90
2022/05/24 06:46:18;;;;;;;6.97;1.33;;;15.20;99.90;;;;;;4164585;28;20652;-92
2022/05/24 06:48:19;;;;;;;2.78;1.20;;;15.50;99.90;;;;;;4181287;28;20163;-92
2022/05/24 06:50:20;;;;;;;5.00;1.25;;;15.60;99.90;;;;;;4181232;28;20207;-87
2022/05/24 06:52:21;;;;;;;4.05;1.38;;;15.80;99.90;;;;;;4165606;28;20168;-87
2022/05/24 06:54:22;;;;;;;4.38;1.42;;;16.10;99.90;;;;;;4181151;28;20195;-83
2022/05/24 06:56:23;;;;;;;4.55;1.48;;;16.60;99.90;;;;;;4189557;28;20183;-90
2022/05/24 06:58:24;;;;;;;6.10;1.50;;;16.50;99.90;;;;;;4165415;28;20175;-91
2022/05/24 07:02:46;;;;;;;8.18;1.98;;;16.30;99.90;;;;;;4165348;28;20532;-84
2022/05/24 07:04:46;;;;;;;7.93;1.58;;;16.40;99.90;;;;;;4164192;28;20181;-84
2022/05/24 07:06:47;;;;;;;4.05;1.33;;;16.40;99.90;;;;;;4147872;28;20192;-95
2022/05/24 07:08:49;;;;;;;3.92;1.00;;;16.40;99.90;;;;;;4147839;28;20200;-85
2022/05/24 07:10:50;;;;;;;4.97;1.00;;;16.50;99.90;;;;;;4164975;28;20211;-86
2022/05/24 07:13:02;;;;;;;3.05;0.98;;;16.60;99.90;;;;;;4163892;28;20556;-85
2022/05/24 07:15:03;;;;;;;5.82;0.90;;;16.50;99.90;;;;;;4164749;28;20180;-84
2022/05/24 07:17:04;;;;;;;13.02;1.42;;;16.40;99.90;;;;;;4147433;28;20267;-92
2022/05/24 07:19:05;;;;;;;1.52;0.73;;;16.60;99.90;;;;;;4147398;28;20172;-93
2022/05/24 07:21:06;;;;;;;4.82;1.50;;;16.70;99.90;;;;;;4146841;28;20271;-85
2022/05/24 07:23:08;;;;;;;6.10;0.93;;;16.60;99.90;;;;;;4147823;28;20757;-86
2022/05/24 07:25:09;;;;;;;8.25;1.10;;;16.70;99.90;;;;;;4147334;28;20236;-86
2022/05/24 07:27:11;;;;;;;7.10;1.00;;;16.90;99.90;;;;;;4163884;28;20619;-91
2022/05/24 07:29:13;;;;;;;2.35;0.90;;;17.90;99.90;;;;;;4163850;28;20175;-86
2022/05/24 07:31:13;;;;;;;6.13;0.60;;;18.50;99.90;;;;;;4147354;28;20211;-87
2022/05/24 07:33:16;;;;;;;2.42;0.80;;;18.70;99.90;;;;;;4163960;28;20656;-85
2022/05/24 07:35:16;;;;;;;2.00;0.47;;;19.20;99.90;;;;;;4147660;28;20271;-86
2022/05/24 07:37:18;;;;;;;4.45;1.02;;;20.10;99.90;;;;;;4147292;28;20201;-86
2022/05/24 07:39:19;;;;;;;5.18;0.57;;;21.60;99.90;;;;;;4180216;28;20203;-86
2022/05/24 07:46:02;;;;;;;4.65;0.60;;;21.30;99.90;;;;;;4163756;28;20530;-86
2022/05/24 07:48:04;;;;;;;8.35;0.68;;;20.50;99.90;;;;;;4147524;28;20184;-86
2022/05/24 07:50:06;;;;;;;4.70;0.80;;;20.40;99.90;;;;;;4179867;28;20707;-86
2022/05/24 07:52:07;;;;;;;4.10;0.85;;;20.00;99.90;;;;;;4163211;28;20210;-87
2022/05/24 07:54:08;;;;;;;3.08;0.77;;;20.30;99.90;;;;;;4147467;28;20193;-85
2022/05/24 07:56:09;;;;;;;4.63;0.70;;;20.80;99.90;;;;;;4146918;28;20172;-91
2022/05/24 07:58:11;;;;;;;4.35;0.90;;;21.80;99.90;;;;;;4147506;28;20176;-87
2022/05/24 08:00:13;;;;;;;2.45;0.55;;;22.70;99.90;;;;;;4162895;28;20180;-88
2022/05/24 08:02:16;;;;;;;2.35;0.50;;;23.10;99.90;;;;;;4180286;28;20195;-88
2022/05/24 08:04:18;;;;;;;3.20;0.65;;;23.50;99.90;;;;;;4163830;28;20184;-89
2022/05/24 08:06:19;;;;;;;1.90;0.40;;;23.00;99.90;;;;;;4180174;28;20171;-87
2022/05/24 08:08:20;;;;;;;6.45;0.52;;;22.30;99.90;;;;;;4180173;28;20214;-86
2022/05/24 08:10:21;;;;;;;4.40;0.32;;;22.00;99.90;;;;;;4148151;28;20676;-90
2022/05/24 08:12:22;;;;;;;5.97;0.50;;;21.90;99.90;;;;;;4147125;28;20231;-87
2022/05/24 08:14:23;;;;;;;2.05;0.35;;;21.40;99.90;;;;;;4164546;28;20168;-86
2022/05/24 08:16:25;;;;;;;4.25;0.52;;;21.40;99.90;;;;;;4163382;28;20204;-86
2022/05/24 08:18:26;;;;;;;1.80;0.50;;;21.10;99.90;;;;;;4146979;28;20180;-85
2022/05/24 08:20:29;;;;;;;6.88;1.30;;;21.10;99.90;;;;;;4163434;28;20172;-85
2022/05/24 08:22:30;;;;;;;4.20;0.63;;;21.30;99.90;;;;;;4163510;28;20234;-91
2022/05/24 08:24:31;;;;;;;1.48;0.50;;;22.20;99.90;;;;;;4147620;28;20176;-91
2022/05/24 08:26:32;;;;;;;3.22;0.90;;;22.80;99.90;;;;;;4163857;28;20183;-85
2022/05/24 08:28:33;;;;;;;4.65;0.75;;;22.00;99.90;;;;;;4147206;28;20177;-86
2022/05/24 08:30:36;;;;;;;3.28;0.77;;;21.40;99.90;;;;;;4164290;28;20239;-87
2022/05/24 08:32:37;;;;;;;3.35;0.80;;;21.00;99.90;;;;;;4166437;28;20219;-88
2022/05/24 08:34:38;;;;;;;6.00;0.63;;;20.80;99.90;;;;;;4167204;28;20180;-86
2022/05/24 08:36:38;;;;;;;2.75;0.60;;;19.80;99.90;;;;;;4166179;28;20783;-86
2022/05/24 08:38:41;;;;;;;5.90;0.60;;;20.10;99.90;;;;;;4166417;28;20180;-94
2022/05/24 08:40:45;;;;;;;2.35;0.55;;;20.90;99.90;;;;;;4165850;28;20188;-87
2022/05/24 08:43:04;;;;;;;1.50;0.50;;;21.90;99.90;;;;;;4166477;28;20231;-89
2022/05/24 08:50:01;;;;;;;7.55;0.70;;;21.10;99.90;;;;;;4186249;28;20263;-93
2022/05/24 08:52:04;;;;;;;2.72;0.50;;;20.80;99.90;;;;;;4166819;28;20177;-91
2022/05/24 08:54:15;;;;;;;2.30;0.35;;;20.20;99.90;;;;;;4167848;28;20263;-89
2022/05/24 08:56:23;;;;;;;2.47;0.55;;;20.10;99.90;;;;;;4166908;28;20738;-88
2022/05/24 08:58:39;;;;;;;1.35;0.43;;;19.80;99.90;;;;;;4166490;28;20654;-85
2022/05/24 09:00:41;;;;;;;2.05;0.52;;;19.90;99.90;;;;;;4149911;28;20172;-86
2022/05/24 09:02:47;;;;;;;1.08;0.43;;;20.30;99.90;;;;;;4166545;28;20183;-86
2022/05/24 09:04:50;;;;;;;3.20;0.40;;;21.40;99.90;;;;;;4167244;28;20688;-89
2022/05/24 09:07:06;;;;;;;0.95;0.38;;;22.10;99.90;;;;;;4166385;28;20192;-87
2022/05/24 09:09:31;;;;;;;1.83;0.40;;;22.70;99.90;;;;;;4166144;28;20203;-92
2022/05/24 09:11:32;;;;;;;3.47;0.60;;;22.60;99.90;;;;;;4183393;28;20195;-93
2022/05/24 09:13:53;;;;;;;0.77;0.20;;;22.40;99.90;;;;;;4166657;28;20183;-89
2022/05/24 09:16:01;;;;;;;2.00;0.32;;;22.30;99.90;;;;;;4149384;28;20180;-87
2022/05/24 09:18:21;;;;;;;3.08;0.65;;;22.20;99.90;;;;;;4165838;28;20179;-85
2022/05/24 09:20:24;;;;;;;2.00;0.32;;;22.10;99.90;;;;;;4148707;28;20180;-84
2022/05/24 09:22:33;;;;;;;4.20;0.50;;;21.70;99.90;;;;;;4182279;28;20168;-94
2022/05/24 09:24:56;;;;;;;1.58;0.40;;;22.20;99.90;;;;;;4166181;28;20406;-89
2022/05/24 09:27:09;;;;;;;5.53;0.63;;;21.90;99.90;;;;;;4166341;28;20194;-89
2022/05/24 09:29:14;;;;;;;2.45;0.50;;;21.10;99.90;;;;;;4165487;28;20164;-91
2022/05/24 09:31:30;;;;;;;1.63;0.60;;;20.40;99.90;;;;;;4166041;28;20200;-84
2022/05/24 09:33:31;;;;;;;3.95;0.63;;;20.50;99.90;;;;;;4149763;28;20239;-88
2022/05/24 09:35:32;;;;;;;4.28;0.60;;;21.80;99.90;;;;;;4165733;28;20172;-90
2022/05/24 09:37:33;;;;;;;4.22;0.90;;;22.80;99.90;;;;;;4166171;28;20199;-91
2022/05/24 09:39:42;;;;;;;4.30;1.00;;;22.80;99.90;;;;;;4165313;28;20160;-88
2022/05/24 09:41:53;;;;;;;4.70;0.52;;;22.90;99.90;;;;;;4177246;28;20175;-87
2022/05/24 09:44:03;;;;;;;4.22;0.50;;;23.00;99.90;;;;;;4197181;28;20304;-85
2022/05/24 09:46:15;;;;;;;2.33;0.63;;;23.00;99.90;;;;;;4197668;28;20174;-91
2022/05/24 09:48:23;;;;;;;10.93;0.70;;;22.10;99.90;;;;;;4198507;28;20682;-92
2022/05/24 09:50:36;;;;;;;2.85;0.60;;;22.10;99.90;;;;;;4198446;28;20240;-87
2022/05/24 09:52:37;;;;;;;3.20;0.57;;;21.50;99.90;;;;;;4197881;28;20170;-86
2022/05/24 09:54:57;;;;;;;3.47;0.43;;;20.60;99.90;;;;;;4179089;28;20626;-92
2022/05/24 09:57:10;;;;;;;5.72;0.50;;;20.00;99.90;;;;;;4158735;28;20208;-91
2022/05/24 09:59:29;;;;;;;4.72;0.75;;;19.20;99.90;;;;;;4166484;28;20187;-93
2022/05/24 10:01:39;;;;;;;6.22;1.00;;;19.80;99.90;;;;;;4164661;28;20180;-93
2022/05/24 10:03:49;;;;;;;1.88;0.50;;;20.80;99.90;;;;;;4182944;28;20372;-91
2022/05/24 10:06:10;;;;;;;6.43;0.60;;;21.30;99.90;;;;;;4182775;28;20693;-93
2022/05/24 10:08:16;;;;;;;1.27;0.40;;;21.20;99.90;;;;;;4182571;28;20281;-93
2022/05/24 10:10:23;;;;;;;1.88;0.55;;;21.10;99.90;;;;;;4182611;28;20625;-93
2022/05/24 10:13:05;;;;;;;2.22;0.55;;;21.30;99.90;;;;;;4182784;28;20172;-91
2022/05/24 10:15:33;;;;;;;7.07;0.50;;;21.10;99.90;;;;;;4147645;28;20188;-92
2022/05/24 10:18:00;;;;;;;3.53;0.63;;;21.20;99.90;;;;;;4181558;28;20230;-94
2022/05/24 10:20:22;;;;;;;2.92;0.68;;;22.20;99.90;;;;;;4166133;28;20231;-91
2022/05/24 10:23:00;;;;;;;2.58;0.45;;;22.20;99.90;;;;;;4182444;28;20186;-91
2022/05/24 10:25:40;;;;;;;3.90;0.45;;;22.80;99.90;;;;;;4182372;28;20174;-93
2022/05/24 10:27:52;;;;;;;2.13;0.20;;;22.80;99.90;;;;;;4165854;28;20695;-92
2022/05/24 10:29:58;;;;;;;6.57;0.50;;;22.50;99.90;;;;;;4182084;28;20215;-91
2022/05/24 10:39:57;;;;;;;4.82;0.60;;;21.50;99.90;;;;;;4182552;28;20269;-92
2022/05/24 10:42:09;;;;;;;3.15;0.45;;;21.30;99.90;;;;;;4182054;28;20262;-91
2022/05/24 10:44:17;;;;;;;2.22;0.20;;;20.70;99.90;;;;;;4165580;28;20183;-92
2022/05/24 10:46:30;;;;;;;1.23;0.20;;;19.90;99.90;;;;;;4181846;28;20167;-91
2022/05/24 10:48:38;;;;;;;2.72;0.40;;;18.70;99.90;;;;;;4182187;28;20182;-92
2022/05/24 10:50:55;;;;;;;2.00;0.40;;;18.00;99.90;;;;;;4181608;28;20289;-92
2022/05/24 10:52:58;;;;;;;1.80;0.40;;;17.40;99.90;;;;;;4181611;28;20233;-91
2022/05/24 10:55:07;;;;;;;3.30;0.50;;;17.20;99.90;;;;;;4181740;28;20164;-92
2022/05/24 10:57:13;;;;;;;1.83;0.30;;;17.50;99.90;;;;;;4181898;28;20544;-91
2022/05/24 10:59:34;;;;;;;2.72;0.32;;;17.80;99.90;;;;;;4165458;28;20183;-92
2022/05/24 11:01:45;;;;;;;4.63;0.35;;;18.00;99.90;;;;;;4185208;28;20655;-92
2022/05/24 11:03:50;;;;;;;2.03;0.38;;;18.60;99.90;;;;;;4173770;28;20176;-92
2022/05/24 11:06:00;;;;;;;2.53;0.30;;;18.30;99.90;;;;;;4212146;28;20163;-88
2022/05/24 11:08:19;;;;;;;1.75;0.30;;;18.40;99.90;;;;;;4213775;28;20182;-90
2022/05/24 11:10:29;;;;;;;2.22;0.32;;;18.40;99.90;;;;;;4197309;28;20347;-92
2022/05/24 11:12:38;;;;;;;1.30;0.30;;;18.10;99.90;;;;;;4180452;28;20636;-92
2022/05/24 11:15:01;;;;;;;0.90;0.30;;;17.90;99.90;;;;;;4196598;28;20174;-91
2022/05/24 11:17:02;;;;;;;1.33;0.30;;;17.70;99.90;;;;;;4180452;28;20188;-90
2022/05/24 11:19:09;;;;;;;1.88;0.30;;;17.50;99.90;;;;;;4196838;28;20647;-91
2022/05/24 11:21:18;;;;;;;1.48;0.30;;;17.30;99.90;;;;;;4196587;28;20655;-91
2022/05/24 11:23:26;;;;;;;1.20;0.45;;;16.90;99.90;;;;;;4196544;28;20170;-91
2022/05/24 11:25:33;;;;;;;2.25;0.45;;;17.20;99.90;;;;;;4189945;28;20198;-91